sensor_id;sensor_type;location;lat;lon;timestamp;P1;durP1;ratioP1;P2;durP2;ratioP2
49071;SDS011;52656;52.610;10.236;2023-06-26T00:00:11;8.85;;;7.53;;
49071;SDS011;52656;52.610;10.236;2023-06-26T00:02:37;9.45;;;7.65;;
49071;SDS011;52656;52.610;10.236;2023-06-26T00:05:02;7.68;;;6.88;;
49071;SDS011;52656;52.610;10.236;2023-06-26T00:07:29;8.35;;;7.45;;
49071;SDS011;52656;52.610;10.236;2023-06-26T00:09:55;9.35;;;7.15;;
49071;SDS011;52656;52.610;10.236;2023-06-26T00:12:21;8.75;;;7.15;;
49071;SDS011;52656;52.610;10.236;2023-06-26T00:14:47;7.85;;;7.05;;
49071;SDS011;52656;52.610;10.236;2023-06-26T00:17:12;8.13;;;7.32;;
49071;SDS011;52656;52.610;10.236;2023-06-26T00:19:37;8.98;;;7.47;;
49071;SDS011;52656;52.610;10.236;2023-06-26T00:22:03;10.82;;;7.88;;
49071;SDS011;52656;52.610;10.236;2023-06-26T00:24:28;7.80;;;7.00;;
49071;SDS011;52656;52.610;10.236;2023-06-26T00:26:53;8.20;;;7.35;;
49071;SDS011;52656;52.610;10.236;2023-06-26T00:29:19;9.07;;;7.43;;
49071;SDS011;52656;52.610;10.236;2023-06-26T00:31:44;8.80;;;6.95;;
49071;SDS011;52656;52.610;10.236;2023-06-26T00:34:09;9.13;;;7.28;;
49071;SDS011;52656;52.610;10.236;2023-06-26T00:36:35;9.43;;;7.05;;
49071;SDS011;52656;52.610;10.236;2023-06-26T00:39:00;9.25;;;7.55;;
49071;SDS011;52656;52.610;10.236;2023-06-26T00:41:25;10.18;;;7.50;;
49071;SDS011;52656;52.610;10.236;2023-06-26T00:43:51;9.38;;;7.20;;
49071;SDS011;52656;52.610;10.236;2023-06-26T00:46:16;9.25;;;7.28;;
49071;SDS011;52656;52.610;10.236;2023-06-26T00:48:42;7.95;;;6.72;;
49071;SDS011;52656;52.610;10.236;2023-06-26T00:51:08;9.63;;;7.35;;
49071;SDS011;52656;52.610;10.236;2023-06-26T00:53:34;9.68;;;7.47;;
49071;SDS011;52656;52.610;10.236;2023-06-26T00:56:03;9.15;;;8.10;;
49071;SDS011;52656;52.610;10.236;2023-06-26T00:58:30;10.20;;;7.68;;
49071;SDS011;52656;52.610;10.236;2023-06-26T01:00:55;10.15;;;7.85;;
49071;SDS011;52656;52.610;10.236;2023-06-26T01:03:21;8.85;;;7.15;;
49071;SDS011;52656;52.610;10.236;2023-06-26T01:05:48;8.18;;;7.38;;
49071;SDS011;52656;52.610;10.236;2023-06-26T01:08:15;8.50;;;7.70;;
49071;SDS011;52656;52.610;10.236;2023-06-26T01:10:41;9.10;;;8.02;;
49071;SDS011;52656;52.610;10.236;2023-06-26T01:13:07;9.35;;;7.63;;
49071;SDS011;52656;52.610;10.236;2023-06-26T01:15:33;8.68;;;7.68;;
49071;SDS011;52656;52.610;10.236;2023-06-26T01:17:59;9.15;;;8.13;;
49071;SDS011;52656;52.610;10.236;2023-06-26T01:20:28;8.25;;;7.35;;
49071;SDS011;52656;52.610;10.236;2023-06-26T01:25:51;8.80;;;7.90;;
49071;SDS011;52656;52.610;10.236;2023-06-26T01:28:24;8.70;;;7.70;;
49071;SDS011;52656;52.610;10.236;2023-06-26T01:30:50;8.88;;;7.97;;
49071;SDS011;52656;52.610;10.236;2023-06-26T01:33:16;8.68;;;7.78;;
49071;SDS011;52656;52.610;10.236;2023-06-26T01:35:42;9.82;;;8.30;;
49071;SDS011;52656;52.610;10.236;2023-06-26T01:38:17;10.52;;;8.65;;
49071;SDS011;52656;52.610;10.236;2023-06-26T01:40:44;10.68;;;8.73;;
49071;SDS011;52656;52.610;10.236;2023-06-26T01:43:22;10.70;;;8.77;;
49071;SDS011;52656;52.610;10.236;2023-06-26T01:45:54;9.45;;;7.88;;
49071;SDS011;52656;52.610;10.236;2023-06-26T01:48:25;9.98;;;8.13;;
49071;SDS011;52656;52.610;10.236;2023-06-26T01:50:59;9.88;;;8.07;;
49071;SDS011;52656;52.610;10.236;2023-06-26T01:53:25;8.98;;;7.63;;
49071;SDS011;52656;52.610;10.236;2023-06-26T01:56:04;11.05;;;8.30;;
49071;SDS011;52656;52.610;10.236;2023-06-26T01:58:32;9.07;;;8.17;;
49071;SDS011;52656;52.610;10.236;2023-06-26T02:01:00;8.65;;;7.75;;
49071;SDS011;52656;52.610;10.236;2023-06-26T02:03:25;9.52;;;7.65;;
49071;SDS011;52656;52.610;10.236;2023-06-26T02:05:51;9.50;;;7.55;;
49071;SDS011;52656;52.610;10.236;2023-06-26T02:08:16;8.82;;;7.78;;
49071;SDS011;52656;52.610;10.236;2023-06-26T02:10:42;8.82;;;7.90;;
49071;SDS011;52656;52.610;10.236;2023-06-26T02:13:07;8.77;;;7.65;;
49071;SDS011;52656;52.610;10.236;2023-06-26T02:15:32;11.18;;;7.82;;
49071;SDS011;52656;52.610;10.236;2023-06-26T02:17:58;10.52;;;8.13;;
49071;SDS011;52656;52.610;10.236;2023-06-26T02:20:23;10.40;;;8.00;;
49071;SDS011;52656;52.610;10.236;2023-06-26T02:22:48;9.02;;;8.10;;
49071;SDS011;52656;52.610;10.236;2023-06-26T02:25:14;9.90;;;8.52;;
49071;SDS011;52656;52.610;10.236;2023-06-26T02:27:39;8.80;;;7.80;;
49071;SDS011;52656;52.610;10.236;2023-06-26T02:30:05;10.02;;;8.85;;
49071;SDS011;52656;52.610;10.236;2023-06-26T02:32:31;10.43;;;8.68;;
49071;SDS011;52656;52.610;10.236;2023-06-26T02:34:56;9.75;;;8.20;;
49071;SDS011;52656;52.610;10.236;2023-06-26T02:37:21;9.20;;;8.30;;
49071;SDS011;52656;52.610;10.236;2023-06-26T02:39:47;9.73;;;8.60;;
49071;SDS011;52656;52.610;10.236;2023-06-26T02:42:12;10.10;;;8.70;;
49071;SDS011;52656;52.610;10.236;2023-06-26T02:44:37;10.13;;;8.48;;
49071;SDS011;52656;52.610;10.236;2023-06-26T02:47:03;9.52;;;8.07;;
49071;SDS011;52656;52.610;10.236;2023-06-26T02:49:28;12.32;;;8.27;;
49071;SDS011;52656;52.610;10.236;2023-06-26T02:51:54;10.95;;;8.38;;
49071;SDS011;52656;52.610;10.236;2023-06-26T02:54:19;9.80;;;8.20;;
49071;SDS011;52656;52.610;10.236;2023-06-26T02:56:45;10.80;;;8.23;;
49071;SDS011;52656;52.610;10.236;2023-06-26T02:59:10;13.63;;;8.88;;
49071;SDS011;52656;52.610;10.236;2023-06-26T03:01:35;10.50;;;8.38;;
49071;SDS011;52656;52.610;10.236;2023-06-26T03:04:01;9.85;;;8.57;;
49071;SDS011;52656;52.610;10.236;2023-06-26T03:06:26;10.20;;;9.07;;
49071;SDS011;52656;52.610;10.236;2023-06-26T03:08:52;9.75;;;8.18;;
49071;SDS011;52656;52.610;10.236;2023-06-26T03:11:18;11.10;;;8.50;;
49071;SDS011;52656;52.610;10.236;2023-06-26T03:13:44;11.15;;;8.98;;
49071;SDS011;52656;52.610;10.236;2023-06-26T03:16:09;10.55;;;9.20;;
49071;SDS011;52656;52.610;10.236;2023-06-26T03:18:34;10.63;;;8.98;;
49071;SDS011;52656;52.610;10.236;2023-06-26T03:20:59;10.20;;;9.10;;
49071;SDS011;52656;52.610;10.236;2023-06-26T03:23:25;9.77;;;8.70;;
49071;SDS011;52656;52.610;10.236;2023-06-26T03:25:50;9.63;;;8.57;;
49071;SDS011;52656;52.610;10.236;2023-06-26T03:28:16;10.25;;;8.50;;
49071;SDS011;52656;52.610;10.236;2023-06-26T03:30:42;10.88;;;7.85;;
49071;SDS011;52656;52.610;10.236;2023-06-26T03:33:07;9.30;;;8.30;;
49071;SDS011;52656;52.610;10.236;2023-06-26T03:35:33;9.18;;;8.27;;
49071;SDS011;52656;52.610;10.236;2023-06-26T03:37:58;9.60;;;8.50;;
49071;SDS011;52656;52.610;10.236;2023-06-26T03:40:25;9.85;;;8.75;;
49071;SDS011;52656;52.610;10.236;2023-06-26T03:42:51;9.23;;;8.30;;
49071;SDS011;52656;52.610;10.236;2023-06-26T03:45:16;9.77;;;7.78;;
49071;SDS011;52656;52.610;10.236;2023-06-26T03:47:42;9.98;;;8.25;;
49071;SDS011;52656;52.610;10.236;2023-06-26T03:50:07;13.90;;;8.68;;
49071;SDS011;52656;52.610;10.236;2023-06-26T03:52:33;10.23;;;8.98;;
49071;SDS011;52656;52.610;10.236;2023-06-26T03:54:58;12.45;;;8.60;;
49071;SDS011;52656;52.610;10.236;2023-06-26T03:57:24;9.15;;;7.85;;
49071;SDS011;52656;52.610;10.236;2023-06-26T03:59:50;9.60;;;8.45;;
49071;SDS011;52656;52.610;10.236;2023-06-26T04:02:15;10.27;;;8.02;;
49071;SDS011;52656;52.610;10.236;2023-06-26T04:04:40;10.23;;;7.80;;
49071;SDS011;52656;52.610;10.236;2023-06-26T04:07:06;10.95;;;7.40;;
49071;SDS011;52656;52.610;10.236;2023-06-26T04:09:31;9.68;;;8.43;;
49071;SDS011;52656;52.610;10.236;2023-06-26T04:11:56;8.43;;;7.35;;
49071;SDS011;52656;52.610;10.236;2023-06-26T04:14:22;9.35;;;7.80;;
49071;SDS011;52656;52.610;10.236;2023-06-26T04:16:47;8.82;;;6.95;;
49071;SDS011;52656;52.610;10.236;2023-06-26T04:19:13;8.50;;;6.40;;
49071;SDS011;52656;52.610;10.236;2023-06-26T04:21:38;7.70;;;6.72;;
49071;SDS011;52656;52.610;10.236;2023-06-26T04:24:03;9.98;;;7.32;;
49071;SDS011;52656;52.610;10.236;2023-06-26T04:26:29;8.85;;;6.28;;
49071;SDS011;52656;52.610;10.236;2023-06-26T04:28:54;8.98;;;6.35;;
49071;SDS011;52656;52.610;10.236;2023-06-26T04:31:20;6.30;;;5.63;;
49071;SDS011;52656;52.610;10.236;2023-06-26T04:33:45;7.78;;;6.32;;
49071;SDS011;52656;52.610;10.236;2023-06-26T04:36:15;8.25;;;6.32;;
49071;SDS011;52656;52.610;10.236;2023-06-26T04:38:41;8.20;;;6.35;;
49071;SDS011;52656;52.610;10.236;2023-06-26T04:41:07;6.88;;;5.55;;
49071;SDS011;52656;52.610;10.236;2023-06-26T04:43:32;6.78;;;5.70;;
49071;SDS011;52656;52.610;10.236;2023-06-26T04:45:57;9.40;;;6.13;;
49071;SDS011;52656;52.610;10.236;2023-06-26T04:48:23;7.38;;;5.63;;
49071;SDS011;52656;52.610;10.236;2023-06-26T04:50:48;14.25;;;6.40;;
49071;SDS011;52656;52.610;10.236;2023-06-26T04:53:19;7.00;;;5.72;;
49071;SDS011;52656;52.610;10.236;2023-06-26T04:55:46;7.28;;;5.88;;
49071;SDS011;52656;52.610;10.236;2023-06-26T04:58:11;7.38;;;5.70;;
49071;SDS011;52656;52.610;10.236;2023-06-26T05:00:36;8.32;;;6.00;;
49071;SDS011;52656;52.610;10.236;2023-06-26T05:03:02;6.85;;;5.45;;
49071;SDS011;52656;52.610;10.236;2023-06-26T05:05:27;8.45;;;5.95;;
49071;SDS011;52656;52.610;10.236;2023-06-26T05:07:54;6.78;;;5.32;;
49071;SDS011;52656;52.610;10.236;2023-06-26T05:10:20;7.35;;;5.53;;
49071;SDS011;52656;52.610;10.236;2023-06-26T05:12:46;8.95;;;5.57;;
49071;SDS011;52656;52.610;10.236;2023-06-26T05:15:11;8.52;;;6.13;;
49071;SDS011;52656;52.610;10.236;2023-06-26T05:17:36;7.95;;;5.70;;
49071;SDS011;52656;52.610;10.236;2023-06-26T05:20:01;6.90;;;4.88;;
49071;SDS011;52656;52.610;10.236;2023-06-26T05:22:28;7.63;;;5.40;;
49071;SDS011;52656;52.610;10.236;2023-06-26T05:24:54;8.52;;;5.72;;
49071;SDS011;52656;52.610;10.236;2023-06-26T05:27:24;6.93;;;5.35;;
49071;SDS011;52656;52.610;10.236;2023-06-26T05:29:50;6.28;;;4.97;;
49071;SDS011;52656;52.610;10.236;2023-06-26T05:32:16;6.65;;;4.93;;
49071;SDS011;52656;52.610;10.236;2023-06-26T05:34:46;6.57;;;4.90;;
49071;SDS011;52656;52.610;10.236;2023-06-26T05:37:14;5.72;;;4.60;;
49071;SDS011;52656;52.610;10.236;2023-06-26T05:39:45;8.43;;;4.47;;
49071;SDS011;52656;52.610;10.236;2023-06-26T05:42:11;10.13;;;4.68;;
49071;SDS011;52656;52.610;10.236;2023-06-26T05:44:38;9.20;;;4.97;;
49071;SDS011;52656;52.610;10.236;2023-06-26T05:47:04;5.45;;;4.57;;
49071;SDS011;52656;52.610;10.236;2023-06-26T05:49:29;8.80;;;4.45;;
49071;SDS011;52656;52.610;10.236;2023-06-26T05:51:54;7.57;;;4.88;;
49071;SDS011;52656;52.610;10.236;2023-06-26T05:54:20;8.02;;;5.35;;
49071;SDS011;52656;52.610;10.236;2023-06-26T05:56:46;7.32;;;4.78;;
49071;SDS011;52656;52.610;10.236;2023-06-26T05:59:12;7.43;;;4.57;;
49071;SDS011;52656;52.610;10.236;2023-06-26T06:01:40;6.45;;;4.28;;
49071;SDS011;52656;52.610;10.236;2023-06-26T06:04:05;8.57;;;4.70;;
49071;SDS011;52656;52.610;10.236;2023-06-26T06:06:31;5.22;;;4.40;;
49071;SDS011;52656;52.610;10.236;2023-06-26T06:08:56;5.38;;;4.28;;
49071;SDS011;52656;52.610;10.236;2023-06-26T06:11:21;7.05;;;4.40;;
49071;SDS011;52656;52.610;10.236;2023-06-26T06:13:47;5.22;;;4.03;;
49071;SDS011;52656;52.610;10.236;2023-06-26T06:16:13;6.82;;;4.20;;
49071;SDS011;52656;52.610;10.236;2023-06-26T06:18:38;6.18;;;4.90;;
49071;SDS011;52656;52.610;10.236;2023-06-26T06:21:03;6.30;;;4.50;;
49071;SDS011;52656;52.610;10.236;2023-06-26T06:23:29;5.75;;;4.15;;
49071;SDS011;52656;52.610;10.236;2023-06-26T06:25:54;5.95;;;4.07;;
49071;SDS011;52656;52.610;10.236;2023-06-26T06:28:19;7.38;;;4.43;;
49071;SDS011;52656;52.610;10.236;2023-06-26T06:30:45;5.80;;;4.05;;
49071;SDS011;52656;52.610;10.236;2023-06-26T06:33:12;6.10;;;4.30;;
49071;SDS011;52656;52.610;10.236;2023-06-26T06:35:38;7.47;;;4.20;;
49071;SDS011;52656;52.610;10.236;2023-06-26T06:38:03;7.22;;;3.95;;
49071;SDS011;52656;52.610;10.236;2023-06-26T06:40:28;6.38;;;4.07;;
49071;SDS011;52656;52.610;10.236;2023-06-26T06:42:54;9.55;;;4.20;;
49071;SDS011;52656;52.610;10.236;2023-06-26T06:45:19;4.53;;;3.70;;
49071;SDS011;52656;52.610;10.236;2023-06-26T06:47:44;5.88;;;4.07;;
49071;SDS011;52656;52.610;10.236;2023-06-26T06:50:10;5.95;;;3.67;;
49071;SDS011;52656;52.610;10.236;2023-06-26T06:52:36;6.90;;;3.83;;
49071;SDS011;52656;52.610;10.236;2023-06-26T06:55:02;7.93;;;4.15;;
49071;SDS011;52656;52.610;10.236;2023-06-26T06:57:31;11.80;;;4.07;;
49071;SDS011;52656;52.610;10.236;2023-06-26T07:00:01;5.65;;;4.10;;
49071;SDS011;52656;52.610;10.236;2023-06-26T07:02:29;5.25;;;3.83;;
49071;SDS011;52656;52.610;10.236;2023-06-26T07:04:54;5.32;;;3.95;;
49071;SDS011;52656;52.610;10.236;2023-06-26T07:07:20;6.88;;;4.53;;
49071;SDS011;52656;52.610;10.236;2023-06-26T07:09:45;8.05;;;4.30;;
49071;SDS011;52656;52.610;10.236;2023-06-26T07:12:10;9.60;;;4.03;;
49071;SDS011;52656;52.610;10.236;2023-06-26T07:14:36;5.25;;;4.00;;
49071;SDS011;52656;52.610;10.236;2023-06-26T07:17:01;7.22;;;4.25;;
49071;SDS011;52656;52.610;10.236;2023-06-26T07:19:26;5.90;;;3.72;;
49071;SDS011;52656;52.610;10.236;2023-06-26T07:21:52;5.20;;;3.65;;
49071;SDS011;52656;52.610;10.236;2023-06-26T07:24:17;5.22;;;4.13;;
49071;SDS011;52656;52.610;10.236;2023-06-26T07:26:42;6.22;;;4.03;;
49071;SDS011;52656;52.610;10.236;2023-06-26T07:29:08;6.93;;;4.13;;
49071;SDS011;52656;52.610;10.236;2023-06-26T07:31:33;6.03;;;3.80;;
49071;SDS011;52656;52.610;10.236;2023-06-26T07:33:59;5.35;;;3.80;;
49071;SDS011;52656;52.610;10.236;2023-06-26T07:36:24;10.27;;;4.13;;
49071;SDS011;52656;52.610;10.236;2023-06-26T07:38:50;5.83;;;3.70;;
49071;SDS011;52656;52.610;10.236;2023-06-26T07:41:15;5.53;;;3.63;;
49071;SDS011;52656;52.610;10.236;2023-06-26T07:43:40;4.90;;;3.55;;
49071;SDS011;52656;52.610;10.236;2023-06-26T07:46:05;6.43;;;4.03;;
49071;SDS011;52656;52.610;10.236;2023-06-26T07:48:31;4.97;;;3.75;;
49071;SDS011;52656;52.610;10.236;2023-06-26T07:50:56;4.53;;;3.58;;
49071;SDS011;52656;52.610;10.236;2023-06-26T07:53:21;4.83;;;3.70;;
49071;SDS011;52656;52.610;10.236;2023-06-26T07:55:47;5.03;;;3.70;;
49071;SDS011;52656;52.610;10.236;2023-06-26T07:58:12;4.67;;;3.57;;
49071;SDS011;52656;52.610;10.236;2023-06-26T08:00:37;7.88;;;3.78;;
49071;SDS011;52656;52.610;10.236;2023-06-26T08:03:03;5.32;;;3.80;;
49071;SDS011;52656;52.610;10.236;2023-06-26T08:05:28;8.90;;;3.90;;
49071;SDS011;52656;52.610;10.236;2023-06-26T08:07:54;5.10;;;3.92;;
49071;SDS011;52656;52.610;10.236;2023-06-26T08:10:20;5.18;;;3.88;;
49071;SDS011;52656;52.610;10.236;2023-06-26T08:12:45;5.05;;;3.80;;
49071;SDS011;52656;52.610;10.236;2023-06-26T08:15:11;4.65;;;3.45;;
49071;SDS011;52656;52.610;10.236;2023-06-26T08:17:38;6.22;;;4.13;;
49071;SDS011;52656;52.610;10.236;2023-06-26T08:20:03;5.80;;;4.10;;
49071;SDS011;52656;52.610;10.236;2023-06-26T08:22:30;4.65;;;3.40;;
49071;SDS011;52656;52.610;10.236;2023-06-26T08:24:55;10.18;;;3.78;;
49071;SDS011;52656;52.610;10.236;2023-06-26T08:27:21;9.38;;;4.30;;
49071;SDS011;52656;52.610;10.236;2023-06-26T08:29:46;6.22;;;4.00;;
49071;SDS011;52656;52.610;10.236;2023-06-26T08:32:12;6.43;;;4.38;;
49071;SDS011;52656;52.610;10.236;2023-06-26T08:34:37;8.73;;;4.38;;
49071;SDS011;52656;52.610;10.236;2023-06-26T08:37:02;6.55;;;4.10;;
49071;SDS011;52656;52.610;10.236;2023-06-26T08:39:28;4.78;;;3.75;;
49071;SDS011;52656;52.610;10.236;2023-06-26T08:41:53;9.97;;;4.40;;
49071;SDS011;52656;52.610;10.236;2023-06-26T08:44:19;11.35;;;3.90;;
49071;SDS011;52656;52.610;10.236;2023-06-26T08:46:48;6.18;;;3.70;;
49071;SDS011;52656;52.610;10.236;2023-06-26T08:49:14;4.90;;;3.78;;
49071;SDS011;52656;52.610;10.236;2023-06-26T08:51:47;8.75;;;4.40;;
49071;SDS011;52656;52.610;10.236;2023-06-26T08:54:23;6.10;;;3.75;;
49071;SDS011;52656;52.610;10.236;2023-06-26T08:56:54;5.18;;;4.15;;
49071;SDS011;52656;52.610;10.236;2023-06-26T08:59:21;5.43;;;3.95;;
49071;SDS011;52656;52.610;10.236;2023-06-26T09:01:46;5.03;;;4.22;;
49071;SDS011;52656;52.610;10.236;2023-06-26T09:04:12;5.65;;;3.72;;
49071;SDS011;52656;52.610;10.236;2023-06-26T09:06:38;6.20;;;4.07;;
49071;SDS011;52656;52.610;10.236;2023-06-26T09:09:04;5.32;;;3.85;;
49071;SDS011;52656;52.610;10.236;2023-06-26T09:11:29;5.57;;;3.92;;
49071;SDS011;52656;52.610;10.236;2023-06-26T09:13:55;5.23;;;4.23;;
49071;SDS011;52656;52.610;10.236;2023-06-26T09:16:24;5.35;;;3.95;;
49071;SDS011;52656;52.610;10.236;2023-06-26T09:18:53;5.25;;;4.10;;
49071;SDS011;52656;52.610;10.236;2023-06-26T09:21:21;7.82;;;3.85;;
49071;SDS011;52656;52.610;10.236;2023-06-26T09:23:46;5.75;;;3.95;;
49071;SDS011;52656;52.610;10.236;2023-06-26T09:26:12;5.05;;;4.18;;
49071;SDS011;52656;52.610;10.236;2023-06-26T09:28:39;6.07;;;4.22;;
49071;SDS011;52656;52.610;10.236;2023-06-26T09:31:07;6.28;;;4.35;;
49071;SDS011;52656;52.610;10.236;2023-06-26T09:33:33;6.65;;;4.07;;
49071;SDS011;52656;52.610;10.236;2023-06-26T09:36:06;6.22;;;3.83;;
49071;SDS011;52656;52.610;10.236;2023-06-26T09:38:44;8.52;;;4.10;;
49071;SDS011;52656;52.610;10.236;2023-06-26T09:41:09;6.47;;;3.85;;
49071;SDS011;52656;52.610;10.236;2023-06-26T09:43:34;9.52;;;4.10;;
49071;SDS011;52656;52.610;10.236;2023-06-26T09:46:14;8.60;;;4.57;;
49071;SDS011;52656;52.610;10.236;2023-06-26T09:48:40;4.82;;;3.80;;
49071;SDS011;52656;52.610;10.236;2023-06-26T09:51:06;13.02;;;4.35;;
49071;SDS011;52656;52.610;10.236;2023-06-26T09:53:31;7.43;;;4.20;;
49071;SDS011;52656;52.610;10.236;2023-06-26T09:56:04;7.10;;;4.15;;
49071;SDS011;52656;52.610;10.236;2023-06-26T09:58:32;5.95;;;4.57;;
49071;SDS011;52656;52.610;10.236;2023-06-26T10:00:58;9.32;;;4.50;;
49071;SDS011;52656;52.610;10.236;2023-06-26T10:03:24;6.60;;;4.95;;
49071;SDS011;52656;52.610;10.236;2023-06-26T10:05:49;24.90;;;5.35;;
49071;SDS011;52656;52.610;10.236;2023-06-26T10:08:15;6.70;;;4.57;;
49071;SDS011;52656;52.610;10.236;2023-06-26T10:10:43;8.30;;;5.20;;
49071;SDS011;52656;52.610;10.236;2023-06-26T10:13:15;7.70;;;4.70;;
49071;SDS011;52656;52.610;10.236;2023-06-26T10:15:44;7.50;;;5.55;;
49071;SDS011;52656;52.610;10.236;2023-06-26T10:18:11;8.07;;;5.40;;
49071;SDS011;52656;52.610;10.236;2023-06-26T10:20:38;7.50;;;5.03;;
49071;SDS011;52656;52.610;10.236;2023-06-26T10:23:05;5.68;;;4.88;;
49071;SDS011;52656;52.610;10.236;2023-06-26T10:25:34;6.50;;;5.40;;
49071;SDS011;52656;52.610;10.236;2023-06-26T10:28:05;8.48;;;5.15;;
49071;SDS011;52656;52.610;10.236;2023-06-26T10:30:33;7.50;;;4.88;;
49071;SDS011;52656;52.610;10.236;2023-06-26T10:33:00;5.95;;;4.97;;
49071;SDS011;52656;52.610;10.236;2023-06-26T10:35:27;7.78;;;5.30;;
49071;SDS011;52656;52.610;10.236;2023-06-26T10:37:53;6.57;;;5.30;;
49071;SDS011;52656;52.610;10.236;2023-06-26T10:40:25;11.27;;;5.55;;
49071;SDS011;52656;52.610;10.236;2023-06-26T10:43:08;9.85;;;6.20;;
49071;SDS011;52656;52.610;10.236;2023-06-26T10:45:35;7.88;;;6.13;;
49071;SDS011;52656;52.610;10.236;2023-06-26T10:48:01;10.77;;;7.07;;
49071;SDS011;52656;52.610;10.236;2023-06-26T10:50:29;10.20;;;8.50;;
49071;SDS011;52656;52.610;10.236;2023-06-26T10:53:08;10.88;;;9.43;;
49071;SDS011;52656;52.610;10.236;2023-06-26T10:55:50;9.95;;;8.95;;
49071;SDS011;52656;52.610;10.236;2023-06-26T11:03:47;10.82;;;7.63;;
49071;SDS011;52656;52.610;10.236;2023-06-26T11:06:23;9.32;;;7.05;;
49071;SDS011;52656;52.610;10.236;2023-06-26T11:11:16;7.13;;;5.63;;
49071;SDS011;52656;52.610;10.236;2023-06-26T11:13:42;8.93;;;4.97;;
49071;SDS011;52656;52.610;10.236;2023-06-26T11:16:07;8.10;;;5.15;;
49071;SDS011;52656;52.610;10.236;2023-06-26T11:18:33;7.53;;;5.07;;
49071;SDS011;52656;52.610;10.236;2023-06-26T11:21:05;6.60;;;4.85;;
49071;SDS011;52656;52.610;10.236;2023-06-26T11:23:31;8.38;;;4.95;;
49071;SDS011;52656;52.610;10.236;2023-06-26T11:26:03;7.60;;;5.55;;
49071;SDS011;52656;52.610;10.236;2023-06-26T11:28:50;9.95;;;6.78;;
49071;SDS011;52656;52.610;10.236;2023-06-26T11:31:23;7.47;;;5.53;;
49071;SDS011;52656;52.610;10.236;2023-06-26T11:33:56;11.18;;;6.28;;
49071;SDS011;52656;52.610;10.236;2023-06-26T11:36:28;13.32;;;6.38;;
49071;SDS011;52656;52.610;10.236;2023-06-26T11:38:54;9.23;;;6.85;;
49071;SDS011;52656;52.610;10.236;2023-06-26T11:41:25;10.48;;;6.63;;
49071;SDS011;52656;52.610;10.236;2023-06-26T11:43:51;9.32;;;6.20;;
49071;SDS011;52656;52.610;10.236;2023-06-26T11:46:18;11.02;;;6.95;;
49071;SDS011;52656;52.610;10.236;2023-06-26T11:48:44;9.00;;;6.50;;
49071;SDS011;52656;52.610;10.236;2023-06-26T11:51:12;9.48;;;6.53;;
49071;SDS011;52656;52.610;10.236;2023-06-26T11:53:39;9.25;;;6.32;;
49071;SDS011;52656;52.610;10.236;2023-06-26T11:56:10;9.75;;;6.00;;
49071;SDS011;52656;52.610;10.236;2023-06-26T12:01:38;8.25;;;6.22;;
49071;SDS011;52656;52.610;10.236;2023-06-26T12:04:05;10.50;;;6.00;;
49071;SDS011;52656;52.610;10.236;2023-06-26T12:06:34;9.60;;;5.70;;
49071;SDS011;52656;52.610;10.236;2023-06-26T12:09:01;7.68;;;5.35;;
49071;SDS011;52656;52.610;10.236;2023-06-26T12:11:30;8.57;;;5.75;;
49071;SDS011;52656;52.610;10.236;2023-06-26T12:13:57;9.75;;;5.50;;
49071;SDS011;52656;52.610;10.236;2023-06-26T12:16:24;8.70;;;5.93;;
49071;SDS011;52656;52.610;10.236;2023-06-26T12:18:50;9.05;;;5.55;;
49071;SDS011;52656;52.610;10.236;2023-06-26T12:21:28;8.13;;;5.40;;
49071;SDS011;52656;52.610;10.236;2023-06-26T12:24:09;6.75;;;5.22;;
49071;SDS011;52656;52.610;10.236;2023-06-26T12:26:38;7.97;;;4.97;;
49071;SDS011;52656;52.610;10.236;2023-06-26T12:29:09;7.43;;;4.88;;
49071;SDS011;52656;52.610;10.236;2023-06-26T12:31:39;8.95;;;4.60;;
49071;SDS011;52656;52.610;10.236;2023-06-26T12:34:10;7.43;;;4.40;;
49071;SDS011;52656;52.610;10.236;2023-06-26T12:36:40;8.13;;;4.40;;
49071;SDS011;52656;52.610;10.236;2023-06-26T12:39:09;6.75;;;3.80;;
49071;SDS011;52656;52.610;10.236;2023-06-26T12:41:43;5.95;;;3.70;;
49071;SDS011;52656;52.610;10.236;2023-06-26T12:44:23;6.72;;;3.67;;
49071;SDS011;52656;52.610;10.236;2023-06-26T12:46:53;6.40;;;3.53;;
49071;SDS011;52656;52.610;10.236;2023-06-26T12:49:20;7.93;;;3.92;;
49071;SDS011;52656;52.610;10.236;2023-06-26T12:51:46;5.35;;;3.15;;
49071;SDS011;52656;52.610;10.236;2023-06-26T12:54:12;5.85;;;3.40;;
49071;SDS011;52656;52.610;10.236;2023-06-26T12:56:37;7.45;;;3.47;;
49071;SDS011;52656;52.610;10.236;2023-06-26T12:59:02;9.90;;;3.30;;
49071;SDS011;52656;52.610;10.236;2023-06-26T13:01:28;5.25;;;3.10;;
49071;SDS011;52656;52.610;10.236;2023-06-26T13:03:53;5.88;;;2.80;;
49071;SDS011;52656;52.610;10.236;2023-06-26T13:06:19;7.20;;;3.10;;
49071;SDS011;52656;52.610;10.236;2023-06-26T13:08:45;5.25;;;2.80;;
49071;SDS011;52656;52.610;10.236;2023-06-26T13:11:10;7.25;;;2.65;;
49071;SDS011;52656;52.610;10.236;2023-06-26T13:13:35;6.57;;;3.10;;
49071;SDS011;52656;52.610;10.236;2023-06-26T13:16:01;7.35;;;2.80;;
49071;SDS011;52656;52.610;10.236;2023-06-26T13:18:27;5.35;;;3.00;;
49071;SDS011;52656;52.610;10.236;2023-06-26T13:20:52;7.20;;;3.05;;
49071;SDS011;52656;52.610;10.236;2023-06-26T13:23:17;5.38;;;2.80;;
49071;SDS011;52656;52.610;10.236;2023-06-26T13:25:44;6.68;;;2.60;;
49071;SDS011;52656;52.610;10.236;2023-06-26T13:28:09;6.50;;;2.75;;
49071;SDS011;52656;52.610;10.236;2023-06-26T13:30:35;5.75;;;2.35;;
49071;SDS011;52656;52.610;10.236;2023-06-26T13:33:00;6.18;;;2.65;;
49071;SDS011;52656;52.610;10.236;2023-06-26T13:35:25;7.57;;;2.50;;
49071;SDS011;52656;52.610;10.236;2023-06-26T13:37:51;4.75;;;2.53;;
49071;SDS011;52656;52.610;10.236;2023-06-26T13:40:16;5.32;;;2.13;;
49071;SDS011;52656;52.610;10.236;2023-06-26T13:42:41;6.10;;;2.20;;
49071;SDS011;52656;52.610;10.236;2023-06-26T13:45:09;4.80;;;2.33;;
49071;SDS011;52656;52.610;10.236;2023-06-26T13:47:34;6.53;;;2.45;;
49071;SDS011;52656;52.610;10.236;2023-06-26T13:50:02;5.43;;;2.45;;
49071;SDS011;52656;52.610;10.236;2023-06-26T13:52:28;6.97;;;2.50;;
49071;SDS011;52656;52.610;10.236;2023-06-26T13:54:53;6.10;;;2.50;;
49071;SDS011;52656;52.610;10.236;2023-06-26T13:57:19;6.72;;;2.33;;
49071;SDS011;52656;52.610;10.236;2023-06-26T13:59:47;8.93;;;3.00;;
49071;SDS011;52656;52.610;10.236;2023-06-26T14:02:12;10.27;;;2.45;;
49071;SDS011;52656;52.610;10.236;2023-06-26T14:04:37;5.57;;;2.30;;
49071;SDS011;52656;52.610;10.236;2023-06-26T14:07:03;6.72;;;1.70;;
49071;SDS011;52656;52.610;10.236;2023-06-26T14:09:29;5.72;;;2.00;;
49071;SDS011;52656;52.610;10.236;2023-06-26T14:11:54;7.20;;;1.95;;
49071;SDS011;52656;52.610;10.236;2023-06-26T14:14:19;5.90;;;2.15;;
49071;SDS011;52656;52.610;10.236;2023-06-26T14:16:44;4.68;;;1.80;;
49071;SDS011;52656;52.610;10.236;2023-06-26T14:19:10;3.83;;;1.70;;
49071;SDS011;52656;52.610;10.236;2023-06-26T14:21:39;5.95;;;1.98;;
49071;SDS011;52656;52.610;10.236;2023-06-26T14:24:05;5.63;;;2.33;;
49071;SDS011;52656;52.610;10.236;2023-06-26T14:26:30;5.57;;;1.90;;
49071;SDS011;52656;52.610;10.236;2023-06-26T14:28:57;4.82;;;2.00;;
49071;SDS011;52656;52.610;10.236;2023-06-26T14:31:22;4.68;;;2.10;;
49071;SDS011;52656;52.610;10.236;2023-06-26T14:33:47;3.60;;;1.90;;
49071;SDS011;52656;52.610;10.236;2023-06-26T14:36:13;6.32;;;2.08;;
49071;SDS011;52656;52.610;10.236;2023-06-26T14:38:38;5.57;;;2.15;;
49071;SDS011;52656;52.610;10.236;2023-06-26T14:41:03;5.72;;;1.88;;
49071;SDS011;52656;52.610;10.236;2023-06-26T14:43:29;4.13;;;1.90;;